sensor_id;sensor_type;location;lat;lon;timestamp;pressure;altitude;pressure_sealevel;temperature;humidity
18755;BME280;35061;47.664;9.166;2023-03-21T00:00:43;101836.25;;;8.20;77.10
18755;BME280;35061;47.664;9.166;2023-03-21T00:03:13;101829.38;;;8.18;77.59
18755;BME280;35061;47.664;9.166;2023-03-21T00:05:43;101836.34;;;8.17;77.95
18755;BME280;35061;47.664;9.166;2023-03-21T00:08:19;101826.63;;;8.14;78.29
18755;BME280;35061;47.664;9.166;2023-03-21T00:10:55;101821.50;;;8.09;78.11
18755;BME280;35061;47.664;9.166;2023-03-21T00:13:22;101826.05;;;8.06;78.76
18755;BME280;35061;47.664;9.166;2023-03-21T00:15:51;101828.53;;;8.04;78.69
18755;BME280;35061;47.664;9.166;2023-03-21T00:18:46;101820.09;;;8.01;78.97
18755;BME280;35061;47.664;9.166;2023-03-21T00:21:17;101822.25;;;7.96;79.21
18755;BME280;35061;47.664;9.166;2023-03-21T00:24:05;101823.04;;;7.97;79.97
18755;BME280;35061;47.664;9.166;2023-03-21T00:26:34;101818.92;;;7.98;80.09
18755;BME280;35061;47.664;9.166;2023-03-21T00:29:02;101810.84;;;7.96;80.23
18755;BME280;35061;47.664;9.166;2023-03-21T00:31:30;101814.93;;;7.95;80.43
18755;BME280;35061;47.664;9.166;2023-03-21T00:33:58;101814.57;;;7.93;80.67
18755;BME280;35061;47.664;9.166;2023-03-21T00:36:26;101798.71;;;7.92;80.81
18755;BME280;35061;47.664;9.166;2023-03-21T00:38:54;101806.00;;;7.93;80.67
18755;BME280;35061;47.664;9.166;2023-03-21T00:41:22;101802.93;;;7.88;80.54
18755;BME280;35061;47.664;9.166;2023-03-21T00:44:07;101798.22;;;7.81;81.13
18755;BME280;35061;47.664;9.166;2023-03-21T00:46:35;101795.02;;;7.79;81.65
18755;BME280;35061;47.664;9.166;2023-03-21T00:49:17;101794.20;;;7.78;81.83
18755;BME280;35061;47.664;9.166;2023-03-21T00:51:47;101786.91;;;7.77;82.07
18755;BME280;35061;47.664;9.166;2023-03-21T00:54:18;101786.91;;;7.77;82.03
18755;BME280;35061;47.664;9.166;2023-03-21T00:56:46;101793.09;;;7.76;82.03
18755;BME280;35061;47.664;9.166;2023-03-21T00:59:14;101795.47;;;7.77;82.52
18755;BME280;35061;47.664;9.166;2023-03-21T01:01:43;101788.96;;;7.77;82.62
18755;BME280;35061;47.664;9.166;2023-03-21T01:04:13;101795.02;;;7.79;82.56
18755;BME280;35061;47.664;9.166;2023-03-21T01:06:43;101785.66;;;7.78;82.41
18755;BME280;35061;47.664;9.166;2023-03-21T01:09:14;101793.09;;;7.76;82.09
18755;BME280;35061;47.664;9.166;2023-03-21T01:11:43;101787.92;;;7.71;82.30
18755;BME280;35061;47.664;9.166;2023-03-21T01:14:13;101787.00;;;7.74;82.32
18755;BME280;35061;47.664;9.166;2023-03-21T01:16:52;101785.66;;;7.78;82.15
18755;BME280;35061;47.664;9.166;2023-03-21T01:19:22;101780.43;;;7.77;81.58
18755;BME280;35061;47.664;9.166;2023-03-21T01:22:12;101780.43;;;7.77;81.65
18755;BME280;35061;47.664;9.166;2023-03-21T01:24:39;101779.52;;;7.80;81.57
18755;BME280;35061;47.664;9.166;2023-03-21T01:27:20;101777.45;;;7.80;81.39
18755;BME280;35061;47.664;9.166;2023-03-21T01:29:48;101779.84;;;7.82;81.12
18755;BME280;35061;47.664;9.166;2023-03-21T01:32:16;101775.75;;;7.83;80.94
18755;BME280;35061;47.664;9.166;2023-03-21T01:34:43;101772.22;;;7.79;80.38
18755;BME280;35061;47.664;9.166;2023-03-21T01:37:11;101770.26;;;7.76;79.97
18755;BME280;35061;47.664;9.166;2023-03-21T01:39:39;101770.78;;;7.71;79.78
18755;BME280;35061;47.664;9.166;2023-03-21T01:42:11;101773.76;;;7.67;79.59
18755;BME280;35061;47.664;9.166;2023-03-21T01:47:24;101764.24;;;7.57;79.28
18755;BME280;35061;47.664;9.166;2023-03-21T01:49:55;101759.99;;;7.49;79.32
18755;BME280;35061;47.664;9.166;2023-03-21T01:52:31;101760.35;;;7.51;79.61
18755;BME280;35061;47.664;9.166;2023-03-21T01:55:05;101756.52;;;7.41;79.24
18755;BME280;35061;47.664;9.166;2023-03-21T01:57:40;101751.72;;;7.38;79.45
18755;BME280;35061;47.664;9.166;2023-03-21T02:00:25;101752.18;;;7.36;79.76
18755;BME280;35061;47.664;9.166;2023-03-21T02:02:56;101748.52;;;7.36;79.59
18755;BME280;35061;47.664;9.166;2023-03-21T02:05:55;101760.81;;;7.33;79.53
18755;BME280;35061;47.664;9.166;2023-03-21T02:08:31;101755.22;;;7.29;79.23
18755;BME280;35061;47.664;9.166;2023-03-21T02:11:07;101754.17;;;7.23;79.02
18755;BME280;35061;47.664;9.166;2023-03-21T02:13:36;101764.15;;;7.15;78.74
18755;BME280;35061;47.664;9.166;2023-03-21T02:27:06;101754.37;;;6.82;78.80
18755;BME280;35061;47.664;9.166;2023-03-21T02:35:40;101737.63;;;6.68;79.60
18755;BME280;35061;47.664;9.166;2023-03-21T02:38:17;101739.33;;;6.65;79.37
18755;BME280;35061;47.664;9.166;2023-03-21T02:43:24;101734.06;;;6.64;79.33
18755;BME280;35061;47.664;9.166;2023-03-21T02:46:15;101734.87;;;6.64;79.55
18755;BME280;35061;47.664;9.166;2023-03-21T02:48:50;101735.40;;;6.59;79.39
18755;BME280;35061;47.664;9.166;2023-03-21T02:51:22;101723.73;;;6.53;79.56
18755;BME280;35061;47.664;9.166;2023-03-21T02:53:58;101728.27;;;6.51;79.40
18755;BME280;35061;47.664;9.166;2023-03-21T02:56:49;101730.82;;;6.45;79.42
18755;BME280;35061;47.664;9.166;2023-03-21T02:59:20;101722.03;;;6.39;79.41
18755;BME280;35061;47.664;9.166;2023-03-21T03:01:50;101727.00;;;6.35;79.61
18755;BME280;35061;47.664;9.166;2023-03-21T03:04:26;101724.58;;;6.34;79.60
18755;BME280;35061;47.664;9.166;2023-03-21T03:15:23;101731.87;;;6.18;81.13
18755;BME280;35061;47.664;9.166;2023-03-21T03:20:35;101735.73;;;6.08;81.06
18755;BME280;35061;47.664;9.166;2023-03-21T03:26:07;101729.35;;;6.00;81.88
18755;BME280;35061;47.664;9.166;2023-03-21T03:28:38;101727.39;;;5.97;81.32
18755;BME280;35061;47.664;9.166;2023-03-21T03:31:11;101730.17;;;6.00;81.52
18755;BME280;35061;47.664;9.166;2023-03-21T03:33:45;101736.68;;;6.01;81.50
18755;BME280;35061;47.664;9.166;2023-03-21T03:36:15;101737.10;;;5.99;81.37
18755;BME280;35061;47.664;9.166;2023-03-21T03:38:59;101733.54;;;5.95;81.52
18755;BME280;35061;47.664;9.166;2023-03-21T03:41:32;101737.49;;;6.02;82.10
18755;BME280;35061;47.664;9.166;2023-03-21T03:44:23;101735.01;;;6.04;81.91
18755;BME280;35061;47.664;9.166;2023-03-21T03:46:58;101732.52;;;6.06;82.06
18755;BME280;35061;47.664;9.166;2023-03-21T03:49:54;101734.84;;;6.11;82.55
18755;BME280;35061;47.664;9.166;2023-03-21T03:52:31;101738.87;;;6.13;82.51
18755;BME280;35061;47.664;9.166;2023-03-21T03:55:10;101737.20;;;6.16;82.47
18755;BME280;35061;47.664;9.166;2023-03-21T03:57:39;101743.25;;;6.18;82.43
18755;BME280;35061;47.664;9.166;2023-03-21T04:00:10;101736.80;;;6.14;82.06
18755;BME280;35061;47.664;9.166;2023-03-21T04:02:39;101739.72;;;6.10;82.06
18755;BME280;35061;47.664;9.166;2023-03-21T04:05:08;101731.18;;;6.10;82.47
18755;BME280;35061;47.664;9.166;2023-03-21T04:07:35;101723.40;;;6.14;82.55
18755;BME280;35061;47.664;9.166;2023-03-21T04:10:03;101731.41;;;6.20;82.39
18755;BME280;35061;47.664;9.166;2023-03-21T04:12:31;101718.76;;;6.21;82.37
18755;BME280;35061;47.664;9.166;2023-03-21T04:14:59;101726.80;;;6.26;82.46
18755;BME280;35061;47.664;9.166;2023-03-21T04:17:36;101719.05;;;6.26;82.28
18755;BME280;35061;47.664;9.166;2023-03-21T04:20:06;101714.12;;;6.31;82.29
18755;BME280;35061;47.664;9.166;2023-03-21T04:22:49;101714.90;;;6.31;81.95
18755;BME280;35061;47.664;9.166;2023-03-21T04:25:17;101714.02;;;6.34;82.24
18755;BME280;35061;47.664;9.166;2023-03-21T04:27:58;101714.38;;;6.36;81.97
18755;BME280;35061;47.664;9.166;2023-03-21T04:30:26;101714.38;;;6.36;81.92
18755;BME280;35061;47.664;9.166;2023-03-21T04:32:54;101709.05;;;6.38;81.96
18755;BME280;35061;47.664;9.166;2023-03-21T04:35:23;101710.55;;;6.43;81.98
18755;BME280;35061;47.664;9.166;2023-03-21T04:37:51;101722.65;;;6.47;81.96
18755;BME280;35061;47.664;9.166;2023-03-21T04:40:19;101714.02;;;6.51;81.89
18755;BME280;35061;47.664;9.166;2023-03-21T04:42:48;101709.50;;;6.53;81.78
18755;BME280;35061;47.664;9.166;2023-03-21T04:45:16;101709.08;;;6.55;81.79
18755;BME280;35061;47.664;9.166;2023-03-21T04:47:44;101711.01;;;6.58;81.98
18755;BME280;35061;47.664;9.166;2023-03-21T04:50:12;101725.52;;;6.64;81.94
18755;BME280;35061;47.664;9.166;2023-03-21T04:52:40;101714.96;;;6.64;81.79
18755;BME280;35061;47.664;9.166;2023-03-21T04:55:08;101721.44;;;6.65;81.50
18755;BME280;35061;47.664;9.166;2023-03-21T04:57:37;101725.16;;;6.62;81.73
18755;BME280;35061;47.664;9.166;2023-03-21T05:00:07;101719.90;;;6.60;81.47
18755;BME280;35061;47.664;9.166;2023-03-21T05:02:37;101721.51;;;6.61;81.74
18755;BME280;35061;47.664;9.166;2023-03-21T05:05:06;101722.42;;;6.58;81.72
18755;BME280;35061;47.664;9.166;2023-03-21T05:07:39;101718.30;;;6.59;81.69
18755;BME280;35061;47.664;9.166;2023-03-21T05:10:10;101721.87;;;6.63;81.73
18755;BME280;35061;47.664;9.166;2023-03-21T05:12:38;101720.16;;;6.66;81.66
18755;BME280;35061;47.664;9.166;2023-03-21T05:15:07;101720.52;;;6.68;81.68
18755;BME280;35061;47.664;9.166;2023-03-21T05:17:35;101728.21;;;6.71;81.54
18755;BME280;35061;47.664;9.166;2023-03-21T05:20:03;101721.27;;;6.72;81.51
18755;BME280;35061;47.664;9.166;2023-03-21T05:22:32;101723.04;;;6.66;81.61
18755;BME280;35061;47.664;9.166;2023-03-21T05:25:08;101717.32;;;6.66;81.68
18755;BME280;35061;47.664;9.166;2023-03-21T05:27:36;101713.43;;;6.60;81.75
18755;BME280;35061;47.664;9.166;2023-03-21T05:32:33;101716.80;;;6.54;81.96
18755;BME280;35061;47.664;9.166;2023-03-21T05:35:01;101720.06;;;6.53;81.89
18755;BME280;35061;47.664;9.166;2023-03-21T05:37:30;101711.17;;;6.51;81.97
18755;BME280;35061;47.664;9.166;2023-03-21T05:39:57;101715.20;;;6.53;82.18
18755;BME280;35061;47.664;9.166;2023-03-21T05:42:25;101711.11;;;6.54;81.95
18755;BME280;35061;47.664;9.166;2023-03-21T05:44:53;101712.77;;;6.52;81.72
18755;BME280;35061;47.664;9.166;2023-03-21T05:47:21;101716.08;;;6.50;81.72
18755;BME280;35061;47.664;9.166;2023-03-21T05:49:49;101717.68;;;6.51;81.72
18755;BME280;35061;47.664;9.166;2023-03-21T05:52:17;101718.10;;;6.50;81.85
18755;BME280;35061;47.664;9.166;2023-03-21T05:54:45;101709.57;;;6.50;81.86
18755;BME280;35061;47.664;9.166;2023-03-21T05:57:13;101719.38;;;6.49;81.84
18755;BME280;35061;47.664;9.166;2023-03-21T05:59:40;101717.77;;;6.48;82.06
18755;BME280;35061;47.664;9.166;2023-03-21T06:02:08;101724.64;;;6.50;81.77
18755;BME280;35061;47.664;9.166;2023-03-21T06:04:36;101726.31;;;6.48;81.83
18755;BME280;35061;47.664;9.166;2023-03-21T06:07:04;101722.65;;;6.47;81.99
18755;BME280;35061;47.664;9.166;2023-03-21T06:09:32;101727.12;;;6.48;81.92
18755;BME280;35061;47.664;9.166;2023-03-21T06:12:00;101731.58;;;6.49;82.15
18755;BME280;35061;47.664;9.166;2023-03-21T06:14:28;101733.60;;;6.49;82.04
18755;BME280;35061;47.664;9.166;2023-03-21T06:16:56;101728.27;;;6.51;82.01
18755;BME280;35061;47.664;9.166;2023-03-21T06:19:24;101729.98;;;6.48;82.33
18755;BME280;35061;47.664;9.166;2023-03-21T06:21:52;101728.60;;;6.53;82.24
18755;BME280;35061;47.664;9.166;2023-03-21T06:24:20;101725.69;;;6.56;82.27
18755;BME280;35061;47.664;9.166;2023-03-21T06:26:48;101729.26;;;6.61;82.37
18755;BME280;35061;47.664;9.166;2023-03-21T06:29:15;101731.22;;;6.64;82.71
18755;BME280;35061;47.664;9.166;2023-03-21T06:31:43;101732.39;;;6.66;83.08
18755;BME280;35061;47.664;9.166;2023-03-21T06:34:11;101733.44;;;6.73;82.85
18755;BME280;35061;47.664;9.166;2023-03-21T06:36:39;101732.55;;;6.76;82.91
18755;BME280;35061;47.664;9.166;2023-03-21T06:39:07;101735.30;;;6.79;82.92
18755;BME280;35061;47.664;9.166;2023-03-21T06:41:35;101732.82;;;6.81;83.19
18755;BME280;35061;47.664;9.166;2023-03-21T06:44:03;101737.63;;;6.84;82.96
18755;BME280;35061;47.664;9.166;2023-03-21T06:46:30;101729.78;;;6.89;83.01
18755;BME280;35061;47.664;9.166;2023-03-21T06:48:58;101740.18;;;6.95;83.17
18755;BME280;35061;47.664;9.166;2023-03-21T06:51:26;101733.63;;;6.98;83.80
18755;BME280;35061;47.664;9.166;2023-03-21T06:53:54;101744.13;;;7.02;83.56
18755;BME280;35061;47.664;9.166;2023-03-21T06:56:21;101748.05;;;7.08;83.49
18755;BME280;35061;47.664;9.166;2023-03-21T06:58:49;101752.77;;;7.15;83.38
18755;BME280;35061;47.664;9.166;2023-03-21T07:01:17;101750.51;;;7.22;83.30
18755;BME280;35061;47.664;9.166;2023-03-21T07:03:45;101739.81;;;7.26;83.05
18755;BME280;35061;47.664;9.166;2023-03-21T07:06:13;101751.46;;;7.32;83.21
18755;BME280;35061;47.664;9.166;2023-03-21T07:08:41;101751.36;;;7.36;83.23
18755;BME280;35061;47.664;9.166;2023-03-21T07:11:09;101753.88;;;7.34;82.98
18755;BME280;35061;47.664;9.166;2023-03-21T07:13:37;101754.14;;;7.39;83.01
18755;BME280;35061;47.664;9.166;2023-03-21T07:16:05;101749.59;;;7.42;83.04
18755;BME280;35061;47.664;9.166;2023-03-21T07:18:33;101751.03;;;7.34;83.59
18755;BME280;35061;47.664;9.166;2023-03-21T07:21:00;101740.44;;;7.34;83.46
18755;BME280;35061;47.664;9.166;2023-03-21T07:23:28;101746.75;;;7.42;83.57
18755;BME280;35061;47.664;9.166;2023-03-21T07:25:56;101741.38;;;7.44;84.17
18755;BME280;35061;47.664;9.166;2023-03-21T07:28:24;101740.38;;;7.51;84.05
18755;BME280;35061;47.664;9.166;2023-03-21T07:30:57;101737.89;;;7.53;84.40
18755;BME280;35061;47.664;9.166;2023-03-21T07:33:25;101739.95;;;7.52;85.63
18755;BME280;35061;47.664;9.166;2023-03-21T07:35:54;101735.76;;;7.57;86.09
18755;BME280;35061;47.664;9.166;2023-03-21T07:38:24;101743.05;;;7.58;85.81
18755;BME280;35061;47.664;9.166;2023-03-21T07:40:52;101740.90;;;7.62;86.46
18755;BME280;35061;47.664;9.166;2023-03-21T07:43:20;101747.30;;;7.66;86.94
18755;BME280;35061;47.664;9.166;2023-03-21T07:45:48;101744.46;;;7.66;86.85
18755;BME280;35061;47.664;9.166;2023-03-21T07:48:16;101746.23;;;7.90;86.43
18755;BME280;35061;47.664;9.166;2023-03-21T07:50:44;101740.21;;;8.01;86.18
18755;BME280;35061;47.664;9.166;2023-03-21T07:53:12;101740.70;;;8.12;85.87
18755;BME280;35061;47.664;9.166;2023-03-21T07:55:40;101734.91;;;8.29;85.43
18755;BME280;35061;47.664;9.166;2023-03-21T07:58:08;101740.50;;;8.45;84.91
18755;BME280;35061;47.664;9.166;2023-03-21T08:00:36;101729.55;;;8.57;84.29
18755;BME280;35061;47.664;9.166;2023-03-21T08:03:03;101727.85;;;8.72;83.76
18755;BME280;35061;47.664;9.166;2023-03-21T08:05:36;101727.95;;;8.82;82.67
18755;BME280;35061;47.664;9.166;2023-03-21T08:08:05;101724.84;;;8.89;82.52
18755;BME280;35061;47.664;9.166;2023-03-21T08:10:33;101727.45;;;8.96;82.23
18755;BME280;35061;47.664;9.166;2023-03-21T08:13:01;101728.14;;;9.00;81.70
18755;BME280;35061;47.664;9.166;2023-03-21T08:15:29;101725.40;;;8.97;81.75
18755;BME280;35061;47.664;9.166;2023-03-21T08:17:59;101720.49;;;8.97;81.56
18755;BME280;35061;47.664;9.166;2023-03-21T08:20:27;101721.51;;;9.03;81.30
18755;BME280;35061;47.664;9.166;2023-03-21T08:22:54;101725.04;;;9.07;81.25
18755;BME280;35061;47.664;9.166;2023-03-21T08:25:22;101724.91;;;9.11;80.71
18755;BME280;35061;47.664;9.166;2023-03-21T08:27:50;101728.21;;;9.10;80.20
18755;BME280;35061;47.664;9.166;2023-03-21T08:30:21;101717.48;;;9.14;79.88
18755;BME280;35061;47.664;9.166;2023-03-21T08:32:49;101728.21;;;9.10;79.39
18755;BME280;35061;47.664;9.166;2023-03-21T08:35:18;101729.38;;;9.12;79.39
18755;BME280;35061;47.664;9.166;2023-03-21T08:37:46;101717.71;;;9.19;79.01
18755;BME280;35061;47.664;9.166;2023-03-21T08:40:16;101708.52;;;9.25;78.87
18755;BME280;35061;47.664;9.166;2023-03-21T08:42:44;101704.27;;;9.29;78.69
18755;BME280;35061;47.664;9.166;2023-03-21T08:45:15;101713.52;;;9.33;78.24
18755;BME280;35061;47.664;9.166;2023-03-21T08:47:44;101700.12;;;9.43;78.23
18755;BME280;35061;47.664;9.166;2023-03-21T08:50:15;101708.88;;;9.49;77.81
18755;BME280;35061;47.664;9.166;2023-03-21T08:52:43;101711.95;;;9.55;77.51
18755;BME280;35061;47.664;9.166;2023-03-21T08:55:12;101706.89;;;9.59;77.14
18755;BME280;35061;47.664;9.166;2023-03-21T08:57:40;101709.63;;;9.62;77.08
18755;BME280;35061;47.664;9.166;2023-03-21T09:00:10;101708.09;;;9.71;76.80
18755;BME280;35061;47.664;9.166;2023-03-21T09:02:42;101706.89;;;9.81;76.71
18755;BME280;35061;47.664;9.166;2023-03-21T09:05:10;101700.41;;;9.90;76.24
18755;BME280;35061;47.664;9.166;2023-03-21T09:07:39;101696.03;;;9.98;75.37
18755;BME280;35061;47.664;9.166;2023-03-21T09:10:11;101692.76;;;10.09;75.40
18755;BME280;35061;47.664;9.166;2023-03-21T09:12:47;101693.61;;;10.19;75.25
18755;BME280;35061;47.664;9.166;2023-03-21T09:15:15;101683.93;;;10.26;73.11
18755;BME280;35061;47.664;9.166;2023-03-21T09:17:44;101692.23;;;10.33;74.12
18755;BME280;35061;47.664;9.166;2023-03-21T09:20:16;101689.88;;;10.41;73.42
18755;BME280;35061;47.664;9.166;2023-03-21T09:22:50;101690.41;;;10.49;73.25
18755;BME280;35061;47.664;9.166;2023-03-21T09:25:20;101689.66;;;10.57;72.91
18755;BME280;35061;47.664;9.166;2023-03-21T09:27:49;101686.48;;;10.65;72.72
18755;BME280;35061;47.664;9.166;2023-03-21T09:30:19;101679.19;;;10.73;72.04
18755;BME280;35061;47.664;9.166;2023-03-21T09:32:52;101683.02;;;10.79;71.52
18755;BME280;35061;47.664;9.166;2023-03-21T09:35:22;101677.30;;;10.88;71.20
18755;BME280;35061;47.664;9.166;2023-03-21T09:37:51;101676.84;;;10.99;70.91
18755;BME280;35061;47.664;9.166;2023-03-21T09:40:26;101666.96;;;11.10;70.95
18755;BME280;35061;47.664;9.166;2023-03-21T09:45:32;101678.60;;;11.34;70.29
18755;BME280;35061;47.664;9.166;2023-03-21T09:48:04;101679.38;;;11.44;69.03
18755;BME280;35061;47.664;9.166;2023-03-21T09:50:36;101668.07;;;11.59;70.16
18755;BME280;35061;47.664;9.166;2023-03-21T09:55:34;101678.08;;;11.82;70.01
18755;BME280;35061;47.664;9.166;2023-03-21T09:58:23;101676.48;;;11.91;69.79
18755;BME280;35061;47.664;9.166;2023-03-21T10:01:03;101672.12;;;12.05;69.38
18755;BME280;35061;47.664;9.166;2023-03-21T10:03:35;101673.37;;;12.22;69.10
18755;BME280;35061;47.664;9.166;2023-03-21T10:06:10;101670.59;;;12.37;69.01
18755;BME280;35061;47.664;9.166;2023-03-21T10:08:40;101667.32;;;12.54;67.96
18755;BME280;35061;47.664;9.166;2023-03-21T10:11:11;101670.88;;;12.73;68.28
18755;BME280;35061;47.664;9.166;2023-03-21T10:13:45;101666.80;;;12.89;67.71
18755;BME280;35061;47.664;9.166;2023-03-21T10:16:27;101662.58;;;13.00;66.98
18755;BME280;35061;47.664;9.166;2023-03-21T10:18:56;101654.83;;;13.06;65.74
18755;BME280;35061;47.664;9.166;2023-03-21T10:21:26;101666.60;;;13.17;65.66
18755;BME280;35061;47.664;9.166;2023-03-21T10:24:20;101654.21;;;13.26;66.04
18755;BME280;35061;47.664;9.166;2023-03-21T10:26:50;101652.64;;;13.40;65.42
18755;BME280;35061;47.664;9.166;2023-03-21T10:29:23;101650.02;;;13.51;65.15
18755;BME280;35061;47.664;9.166;2023-03-21T10:31:53;101647.24;;;13.57;63.77
18755;BME280;35061;47.664;9.166;2023-03-21T10:34:36;101649.92;;;13.61;64.35
18755;BME280;35061;47.664;9.166;2023-03-21T10:37:05;101646.95;;;13.70;63.36
18755;BME280;35061;47.664;9.166;2023-03-21T10:39:39;101641.59;;;13.78;63.83
18755;BME280;35061;47.664;9.166;2023-03-21T10:42:19;101644.66;;;13.89;63.31
18755;BME280;35061;47.664;9.166;2023-03-21T10:44:50;101639.88;;;14.01;62.18
18755;BME280;35061;47.664;9.166;2023-03-21T10:47:23;101633.70;;;14.08;62.27
18755;BME280;35061;47.664;9.166;2023-03-21T10:49:53;101638.48;;;14.12;60.47
18755;BME280;35061;47.664;9.166;2023-03-21T10:52:34;101637.40;;;14.09;60.37
18755;BME280;35061;47.664;9.166;2023-03-21T10:57:45;101636.58;;;14.08;59.28
18755;BME280;35061;47.664;9.166;2023-03-21T11:00:21;101630.27;;;14.04;59.32
18755;BME280;35061;47.664;9.166;2023-03-21T11:02:52;101642.34;;;14.08;59.66
18755;BME280;35061;47.664;9.166;2023-03-21T11:05:35;101638.77;;;14.14;59.94
18755;BME280;35061;47.664;9.166;2023-03-21T11:08:09;101639.46;;;14.08;58.45
18755;BME280;35061;47.664;9.166;2023-03-21T11:10:54;101638.19;;;14.09;58.72
18755;BME280;35061;47.664;9.166;2023-03-21T11:13:38;101635.90;;;14.14;58.53
18755;BME280;35061;47.664;9.166;2023-03-21T11:16:17;101637.30;;;14.18;58.52
18755;BME280;35061;47.664;9.166;2023-03-21T11:18:49;101636.29;;;14.21;58.30
18755;BME280;35061;47.664;9.166;2023-03-21T11:21:17;101628.51;;;14.28;58.69
18755;BME280;35061;47.664;9.166;2023-03-21T11:23:48;101631.71;;;14.30;58.57
18755;BME280;35061;47.664;9.166;2023-03-21T11:26:24;101626.94;;;14.27;57.47
18755;BME280;35061;47.664;9.166;2023-03-21T11:28:54;101623.34;;;14.32;58.37
18755;BME280;35061;47.664;9.166;2023-03-21T11:31:38;101617.23;;;14.24;56.58
18755;BME280;35061;47.664;9.166;2023-03-21T11:34:07;101616.44;;;14.08;57.15
18755;BME280;35061;47.664;9.166;2023-03-21T11:36:37;101617.26;;;14.09;57.11
18755;BME280;35061;47.664;9.166;2023-03-21T11:41:39;101618.43;;;14.02;56.44
18755;BME280;35061;47.664;9.166;2023-03-21T11:46:54;101595.19;;;14.06;57.05
18755;BME280;35061;47.664;9.166;2023-03-21T11:49:23;101598.29;;;14.02;56.52
18755;BME280;35061;47.664;9.166;2023-03-21T11:51:58;101587.63;;;14.08;57.02
18755;BME280;35061;47.664;9.166;2023-03-21T11:54:53;101586.13;;;14.13;57.00
18755;BME280;35061;47.664;9.166;2023-03-21T12:00:40;101583.41;;;14.24;56.31
18755;BME280;35061;47.664;9.166;2023-03-21T12:06:34;101575.01;;;14.42;56.02
18755;BME280;35061;47.664;9.166;2023-03-21T12:12:00;101566.38;;;14.62;54.86
18755;BME280;35061;47.664;9.166;2023-03-21T12:20:22;101554.80;;;14.77;54.38
18755;BME280;35061;47.664;9.166;2023-03-21T12:25:41;101543.45;;;14.95;53.68
18755;BME280;35061;47.664;9.166;2023-03-21T12:41:44;101511.70;;;15.47;53.89
18755;BME280;35061;47.664;9.166;2023-03-21T12:44:20;101515.23;;;15.57;52.66
18755;BME280;35061;47.664;9.166;2023-03-21T12:47:05;101502.97;;;15.68;53.61
18755;BME280;35061;47.664;9.166;2023-03-21T12:49:38;101508.07;;;15.85;53.57
18755;BME280;35061;47.664;9.166;2023-03-21T12:52:35;101502.05;;;15.88;52.97
18755;BME280;35061;47.664;9.166;2023-03-21T12:55:26;101506.34;;;15.93;52.44
18755;BME280;35061;47.664;9.166;2023-03-21T12:58:10;101503.43;;;15.93;51.83
18755;BME280;35061;47.664;9.166;2023-03-21T13:00:53;101502.84;;;15.89;51.90
18755;BME280;35061;47.664;9.166;2023-03-21T13:03:31;101497.34;;;15.91;52.50
18755;BME280;35061;47.664;9.166;2023-03-21T13:06:08;101494.50;;;15.97;52.95
18755;BME280;35061;47.664;9.166;2023-03-21T13:08:51;101491.39;;;16.00;53.03
18755;BME280;35061;47.664;9.166;2023-03-21T13:11:25;101483.28;;;16.04;52.76
18755;BME280;35061;47.664;9.166;2023-03-21T13:27:25;101478.05;;;16.09;50.67
18755;BME280;35061;47.664;9.166;2023-03-21T13:32:41;101471.74;;;16.04;51.78
18755;BME280;35061;47.664;9.166;2023-03-21T13:35:14;101469.35;;;16.03;51.27
18755;BME280;35061;47.664;9.166;2023-03-21T13:37:49;101472.49;;;16.05;51.81
18755;BME280;35061;47.664;9.166;2023-03-21T13:40:21;101464.35;;;16.03;51.54
18755;BME280;35061;47.664;9.166;2023-03-21T13:42:54;101464.05;;;16.01;51.86
18755;BME280;35061;47.664;9.166;2023-03-21T13:45:43;101465.10;;;15.98;52.03
18755;BME280;35061;47.664;9.166;2023-03-21T13:48:29;101458.04;;;15.99;51.89
18755;BME280;35061;47.664;9.166;2023-03-21T13:51:04;101456.93;;;15.91;52.00
18755;BME280;35061;47.664;9.166;2023-03-21T13:53:38;101447.70;;;15.87;52.42
18755;BME280;35061;47.664;9.166;2023-03-21T13:56:20;101447.70;;;15.87;52.46
18755;BME280;35061;47.664;9.166;2023-03-21T13:58:51;101446.86;;;15.81;52.04
18755;BME280;35061;47.664;9.166;2023-03-21T14:01:26;101443.98;;;15.81;52.59
18755;BME280;35061;47.664;9.166;2023-03-21T14:09:29;101440.31;;;15.80;52.83
18755;BME280;35061;47.664;9.166;2023-03-21T14:11:59;101432.37;;;15.69;52.94
18755;BME280;35061;47.664;9.166;2023-03-21T14:14:37;101432.01;;;15.56;53.10
18755;BME280;35061;47.664;9.166;2023-03-21T14:17:24;101434.07;;;15.49;53.19
18755;BME280;35061;47.664;9.166;2023-03-21T14:20:05;101432.14;;;15.35;53.14
18755;BME280;35061;47.664;9.166;2023-03-21T14:22:38;101427.89;;;15.30;53.42
18755;BME280;35061;47.664;9.166;2023-03-21T14:25:11;101430.18;;;15.20;53.57
18755;BME280;35061;47.664;9.166;2023-03-21T14:27:46;101427.20;;;15.09;53.56
18755;BME280;35061;47.664;9.166;2023-03-21T14:30:33;101425.57;;;15.02;53.80
18755;BME280;35061;47.664;9.166;2023-03-21T14:33:19;101422.63;;;14.97;53.87
18755;BME280;35061;47.664;9.166;2023-03-21T14:35:49;101417.63;;;14.91;54.23
18755;BME280;35061;47.664;9.166;2023-03-21T14:38:31;101420.50;;;14.91;54.27
18755;BME280;35061;47.664;9.166;2023-03-21T14:40:59;101412.13;;;14.93;54.34
18755;BME280;35061;47.664;9.166;2023-03-21T14:43:27;101407.16;;;14.94;54.31
18755;BME280;35061;47.664;9.166;2023-03-21T14:45:57;101403.95;;;14.92;54.30
18755;BME280;35061;47.664;9.166;2023-03-21T14:48:33;101407.39;;;14.90;54.32
18755;BME280;35061;47.664;9.166;2023-03-21T14:51:06;101401.34;;;14.88;54.12
18755;BME280;35061;47.664;9.166;2023-03-21T14:53:39;101411.05;;;14.91;54.31
18755;BME280;35061;47.664;9.166;2023-03-21T14:56:21;101405.52;;;14.87;54.40
18755;BME280;35061;47.664;9.166;2023-03-21T14:58:51;101403.10;;;14.80;54.60
18755;BME280;35061;47.664;9.166;2023-03-21T15:01:26;101400.65;;;14.73;54.60
18755;BME280;35061;47.664;9.166;2023-03-21T15:03:54;101397.77;;;14.73;54.51
18755;BME280;35061;47.664;9.166;2023-03-21T15:06:25;101405.66;;;14.72;54.76
18755;BME280;35061;47.664;9.166;2023-03-21T15:08:58;101407.68;;;14.72;54.62